Weather at Calgary / Springbank Airport

Public forecast

Using degrees Celsius for public forecast. Weather courtesy of forecast.io.

Current aviation weather report (METAR) for Calgary / Springbank Airport

2024/07/20 23:00 (retrieved 12 minutes ago)

CYBW 202300Z AUTO 14006KT 120V180 9SM CLR 29/14 A3028 RMK SLP236 DENSITY ALT 6100FT

Aviation forecast (TAF) for Calgary / Springbank Airport

2024/07/20 18:00 (retrieved 5 hours ago)

TAF CYBW 201740Z 2018/2104 32005KT P6SM SKC BECMG 2019/2021 15010KT FM202100 15010KT P6SM FEW130 TEMPO 2021/2104 VRB15G25KT P6SM VCTS BKN100CB RMK FCST BASED ON AUTO OBS NXT FCST BY 210000Z